createdAt,value
2023-05-18T00:01:24.911Z,102081.63
2023-05-18T00:03:56.370Z,102077.81
2023-05-18T00:06:26.118Z,102075.97
2023-05-18T00:08:56.305Z,102078.50
2023-05-18T00:11:26.934Z,102073.84
2023-05-18T00:13:56.775Z,102078.63
2023-05-18T00:16:27.006Z,102080.56
2023-05-18T00:18:57.236Z,102083.34
2023-05-18T00:21:30.838Z,102076.69
2023-05-18T00:24:00.185Z,102082.19
2023-05-18T00:26:30.372Z,102090.41
2023-05-18T00:29:00.604Z,102082.38
2023-05-18T00:31:31.131Z,102085.38
2023-05-18T00:34:01.322Z,102080.91
2023-05-18T00:36:32.864Z,102082.53
2023-05-18T00:39:05.538Z,102090.56
2023-05-18T00:41:34.507Z,102076.78
2023-05-18T00:44:05.227Z,102092.50
2023-05-18T00:46:36.569Z,102088.88
2023-05-18T00:49:05.897Z,102096.88
2023-05-18T00:51:36.007Z,102091.38
2023-05-18T00:54:06.716Z,102095.75
2023-05-18T00:56:42.103Z,102093.00
2023-05-18T00:59:12.080Z,102103.25
2023-05-18T01:01:44.097Z,102105.72
2023-05-18T01:04:14.689Z,102102.09
2023-05-18T01:06:46.576Z,102098.53
2023-05-18T01:09:16.481Z,102105.66
2023-05-18T01:12:09.477Z,102113.13
2023-05-18T01:14:50.229Z,102114.81
2023-05-18T01:18:14.973Z,102127.25
2023-05-18T01:21:00.269Z,102122.84
2023-05-18T01:24:31.962Z,102121.16
2023-05-18T01:27:09.381Z,102117.84
2023-05-18T01:29:43.448Z,102122.50
2023-05-18T01:32:22.745Z,102123.03
2023-05-18T01:34:52.977Z,102124.47
2023-05-18T01:37:21.408Z,102118.09
2023-05-18T01:39:49.969Z,102125.06
2023-05-18T01:42:28.504Z,102130.88
2023-05-18T01:45:15.888Z,102126.44
2023-05-18T01:47:50.223Z,102125.31
2023-05-18T01:50:38.923Z,102125.63
2023-05-18T01:53:23.663Z,102131.97
2023-05-18T01:55:56.417Z,102135.28
2023-05-18T01:58:28.982Z,102137.81
2023-05-18T02:00:57.111Z,102134.53
2023-05-18T02:03:26.210Z,102142.00
2023-05-18T02:05:56.819Z,102140.63
2023-05-18T02:08:24.849Z,102143.13
2023-05-18T02:10:53.708Z,102139.25
2023-05-18T02:13:21.802Z,102132.94
2023-05-18T02:15:50.477Z,102123.59
2023-05-18T02:18:18.815Z,102128.81
2023-05-18T02:20:49.398Z,102124.94
2023-05-18T02:23:18.652Z,102129.03
2023-05-18T02:25:47.556Z,102125.72
2023-05-18T02:28:16.123Z,102121.56
2023-05-18T02:30:44.485Z,102139.19
2023-05-18T02:33:14.710Z,102136.91
2023-05-18T02:35:45.040Z,102127.50
2023-05-18T02:38:15.206Z,102139.34
2023-05-18T02:40:45.583Z,102140.66
2023-05-18T02:43:15.776Z,102134.84
2023-05-18T02:45:44.109Z,102143.88
2023-05-18T02:48:14.281Z,102139.41
2023-05-18T02:50:44.242Z,102141.28
2023-05-18T02:53:14.305Z,102143.72
2023-05-18T02:55:43.747Z,102144.50
2023-05-18T02:58:13.847Z,102138.94
2023-05-18T03:00:44.125Z,102145.50
2023-05-18T03:03:15.911Z,102137.75
2023-05-18T03:05:46.347Z,102154.56
2023-05-18T03:08:16.517Z,102142.13
2023-05-18T03:10:46.749Z,102145.94
2023-05-18T03:13:16.925Z,102140.66
2023-05-18T03:15:48.153Z,102147.53
2023-05-18T03:18:19.640Z,102150.78
2023-05-18T03:20:52.879Z,102148.34
2023-05-18T03:23:23.072Z,102140.66
2023-05-18T03:25:54.572Z,102137.91
2023-05-18T03:28:24.726Z,102145.06
2023-05-18T03:30:55.971Z,102144.00
2023-05-18T03:33:26.800Z,102150.31
2023-05-18T03:35:57.515Z,102146.22
2023-05-18T03:38:27.682Z,102155.34
2023-05-18T03:40:58.438Z,102149.25
2023-05-18T03:43:29.792Z,102155.84
2023-05-18T03:45:57.331Z,102144.81
2023-05-18T03:48:25.843Z,102154.44
2023-05-18T03:50:54.250Z,102158.28
2023-05-18T03:53:22.277Z,102157.44
2023-05-18T03:55:51.783Z,102165.72
2023-05-18T03:58:22.683Z,102158.28
2023-05-18T04:00:50.742Z,102169.03
2023-05-18T04:03:19.105Z,102164.34
2023-05-18T04:05:47.550Z,102178.13
2023-05-18T04:08:15.872Z,102175.38
2023-05-18T04:10:46.210Z,102177.88
2023-05-18T04:13:16.370Z,102181.78
2023-05-18T04:15:47.841Z,102184.88
2023-05-18T04:18:18.110Z,102187.66
2023-05-18T04:20:48.653Z,102189.47
2023-05-18T04:23:18.832Z,102191.53
2023-05-18T04:25:49.612Z,102195.59
2023-05-18T04:28:19.821Z,102196.63
2023-05-18T04:30:50.095Z,102195.09
2023-05-18T04:33:20.750Z,102198.53
2023-05-18T04:35:58.999Z,102193.09
2023-05-18T04:38:29.128Z,102197.88
2023-05-18T04:41:00.672Z,102200.63
2023-05-18T04:43:30.833Z,102201.19
2023-05-18T04:46:01.241Z,102205.66
2023-05-18T04:48:32.378Z,102204.00
2023-05-18T04:51:05.006Z,102205.16
2023-05-18T04:53:35.390Z,102202.44
2023-05-18T04:56:06.651Z,102211.91
2023-05-18T04:58:37.278Z,102204.19
2023-05-18T05:01:08.161Z,102208.63
2023-05-18T05:03:38.827Z,102210.31
2023-05-18T05:06:10.026Z,102208.41
2023-05-18T05:08:40.232Z,102210.34
2023-05-18T05:11:10.401Z,102208.69
2023-05-18T05:13:40.769Z,102206.50
2023-05-18T05:16:11.148Z,102210.13
2023-05-18T05:18:41.557Z,102209.59
2023-05-18T05:21:11.827Z,102212.09
2023-05-18T05:23:42.054Z,102215.41
2023-05-18T05:26:12.245Z,102219.31
2023-05-18T05:28:42.487Z,102219.88
2023-05-18T05:31:12.881Z,102222.63
2023-05-18T05:33:43.325Z,102220.38
2023-05-18T05:36:13.495Z,102228.09
2023-05-18T05:38:43.653Z,102227.56
2023-05-18T05:41:12.153Z,102228.06
2023-05-18T05:43:40.735Z,102234.16
2023-05-18T05:46:09.179Z,102239.06
2023-05-18T05:48:37.782Z,102230.16
2023-05-18T05:51:06.378Z,102229.31
2023-05-18T05:53:34.853Z,102240.25
2023-05-18T05:56:03.519Z,102237.59
2023-05-18T05:58:31.804Z,102239.13
2023-05-18T06:01:00.291Z,102246.66
2023-05-18T06:03:29.577Z,102252.75
2023-05-18T06:05:57.789Z,102246.63
2023-05-18T06:08:25.788Z,102243.50
2023-05-18T06:10:55.937Z,102246.91
2023-05-18T06:13:23.837Z,102244.16
2023-05-18T06:15:54.074Z,102238.91
2023-05-18T06:18:24.626Z,102241.72
2023-05-18T06:20:54.877Z,102231.94
2023-05-18T06:23:25.166Z,102235.56
2023-05-18T06:25:55.311Z,102245.22
2023-05-18T06:28:25.648Z,102242.56
2023-05-18T06:30:55.933Z,102242.66
2023-05-18T06:33:26.793Z,102234.50
2023-05-18T06:35:57.400Z,102243.00
2023-05-18T06:38:27.592Z,102244.56
2023-05-18T06:40:57.748Z,102244.44
2023-05-18T06:43:28.735Z,102244.53
2023-05-18T06:45:59.020Z,102245.63
2023-05-18T06:48:29.781Z,102246.59
2023-05-18T06:50:59.948Z,102245.22
2023-05-18T06:53:32.121Z,102241.38
2023-05-18T06:56:02.460Z,102242.13
2023-05-18T06:58:32.659Z,102245.56
2023-05-18T07:01:03.030Z,102239.75
2023-05-18T07:03:33.398Z,102240.84
2023-05-18T07:06:05.239Z,102247.84
2023-05-18T07:08:37.206Z,102239.78
2023-05-18T07:11:07.098Z,102248.09
2023-05-18T07:13:35.293Z,102238.09
2023-05-18T07:16:03.747Z,102243.16
2023-05-18T07:18:31.541Z,102239.78
2023-05-18T07:21:00.139Z,102241.41
2023-05-18T07:23:28.893Z,102252.34
2023-05-18T07:25:57.867Z,102243.50
2023-05-18T07:28:25.635Z,102230.59
2023-05-18T07:30:53.805Z,102237.31
2023-05-18T07:33:22.163Z,102243.91
2023-05-18T07:35:50.658Z,102236.06
2023-05-18T07:38:19.046Z,102237.25
2023-05-18T07:40:47.493Z,102239.50
2023-05-18T07:43:15.963Z,102237.66
2023-05-18T07:45:44.305Z,102236.09
2023-05-18T07:48:12.751Z,102238.91
2023-05-18T07:50:41.571Z,102235.53
2023-05-18T07:53:09.627Z,102240.25
2023-05-18T07:55:38.104Z,102234.78
2023-05-18T07:58:06.990Z,102241.88
2023-05-18T08:00:35.107Z,102238.59
2023-05-18T08:03:03.371Z,102241.56
2023-05-18T08:05:32.088Z,102245.06
2023-05-18T08:08:05.160Z,102252.41
2023-05-18T08:10:36.737Z,102245.28
2023-05-18T08:13:07.110Z,102245.84
2023-05-18T08:15:38.964Z,102249.00
2023-05-18T08:18:09.327Z,102259.22
2023-05-18T08:20:39.708Z,102250.63
2023-05-18T08:23:10.025Z,102251.06
2023-05-18T08:25:40.210Z,102248.38
2023-05-18T08:28:10.518Z,102247.19
2023-05-18T08:30:40.654Z,102248.59
2023-05-18T08:33:11.054Z,102254.69
2023-05-18T08:35:41.805Z,102255.03
2023-05-18T08:38:12.474Z,102250.22
2023-05-18T08:41:01.032Z,102243.69
2023-05-18T08:43:38.661Z,102244.41
2023-05-18T08:46:26.558Z,102250.66
2023-05-18T08:49:01.036Z,102250.03
2023-05-18T08:51:37.567Z,102243.41
2023-05-18T08:54:06.559Z,102251.31
2023-05-18T08:56:34.784Z,102245.91
2023-05-18T08:59:09.078Z,102257.38
2023-05-18T09:01:39.474Z,102250.13
2023-05-18T09:04:12.899Z,102252.31
2023-05-18T09:06:44.078Z,102255.44
2023-05-18T09:09:15.678Z,102260.41
2023-05-18T09:11:48.625Z,102251.97
2023-05-18T09:14:19.393Z,102246.91
2023-05-18T09:16:49.636Z,102252.31
2023-05-18T09:19:20.380Z,102241.44
2023-05-18T09:21:51.186Z,102244.25
2023-05-18T09:24:24.372Z,102240.50
2023-05-18T09:26:55.957Z,102236.16
2023-05-18T09:29:26.127Z,102241.25
2023-05-18T09:31:56.681Z,102239.00
2023-05-18T09:34:42.451Z,102235.50
2023-05-18T09:37:16.950Z,102230.91
2023-05-18T09:40:01.690Z,102230.81
2023-05-18T09:42:47.312Z,102234.50
2023-05-18T09:45:25.831Z,102233.41
2023-05-18T09:47:56.078Z,102232.22
2023-05-18T09:50:26.714Z,102229.75
2023-05-18T09:52:57.750Z,102239.56
2023-05-18T09:55:27.973Z,102225.94
2023-05-18T09:57:58.943Z,102223.81
2023-05-18T10:00:29.131Z,102231.13
2023-05-18T10:03:01.246Z,102226.63
2023-05-18T10:05:35.748Z,102227.16
2023-05-18T10:08:06.682Z,102230.09
2023-05-18T10:10:44.872Z,102223.19
2023-05-18T10:13:20.921Z,102220.81
2023-05-18T10:15:56.289Z,102214.91
2023-05-18T10:18:32.728Z,102215.81
2023-05-18T10:21:05.109Z,102213.97
2023-05-18T10:23:37.695Z,102210.00
2023-05-18T10:26:10.195Z,102202.56
2023-05-18T10:28:47.652Z,102203.31
2023-05-18T10:31:17.449Z,102205.41
2023-05-18T10:33:50.638Z,102200.78
2023-05-18T10:36:20.926Z,102208.16
2023-05-18T10:38:52.280Z,102194.47
2023-05-18T10:41:23.460Z,102199.28
2023-05-18T10:43:55.643Z,102193.38
2023-05-18T10:46:27.193Z,102200.56
2023-05-18T10:48:59.903Z,102202.75
2023-05-18T10:51:31.913Z,102200.03
2023-05-18T10:54:15.170Z,102196.16
2023-05-18T10:56:52.218Z,102186.03
2023-05-18T10:59:25.904Z,102183.53
2023-05-18T11:01:59.703Z,102189.97
2023-05-18T11:04:32.224Z,102192.59
2023-05-18T11:07:02.700Z,102187.91
2023-05-18T11:09:34.051Z,102201.63
2023-05-18T11:12:15.493Z,102197.97
2023-05-18T11:14:57.897Z,102194.59
2023-05-18T11:17:30.275Z,102193.59
2023-05-18T11:20:09.886Z,102186.81
2023-05-18T11:23:03.731Z,102174.38
2023-05-18T11:25:36.448Z,102176.16
2023-05-18T11:28:13.802Z,102181.41
2023-05-18T11:30:45.044Z,102186.78
2023-05-18T11:33:28.650Z,102185.53
2023-05-18T11:36:26.310Z,102182.38
2023-05-18T11:39:11.594Z,102171.00
2023-05-18T11:41:42.852Z,102173.72
2023-05-18T11:44:12.995Z,102166.94
2023-05-18T11:47:06.118Z,102164.75
2023-05-18T11:49:53.968Z,102174.16
2023-05-18T11:52:26.017Z,102173.69
2023-05-18T11:55:01.592Z,102177.97
2023-05-18T11:57:34.624Z,102168.88
2023-05-18T12:00:12.622Z,102169.75
2023-05-18T12:02:49.388Z,102173.03
2023-05-18T12:06:45.385Z,102169.59
2023-05-18T12:09:16.078Z,102163.66
2023-05-18T12:11:44.632Z,102168.38
2023-05-18T12:14:14.116Z,102168.56
2023-05-18T12:16:44.955Z,102161.50
2023-05-18T12:19:15.805Z,102151.25
2023-05-18T12:21:47.226Z,102156.66
2023-05-18T12:24:17.349Z,102156.66
2023-05-18T12:26:46.889Z,102152.81
2023-05-18T12:29:20.132Z,102146.97
2023-05-18T12:31:50.336Z,102151.94
2023-05-18T12:34:20.248Z,102146.63
2023-05-18T12:36:54.866Z,102154.91
2023-05-18T12:39:28.655Z,102151.03
2023-05-18T12:42:19.632Z,102154.03
2023-05-18T12:44:50.986Z,102144.53
2023-05-18T12:47:21.547Z,102151.28
2023-05-18T12:49:51.443Z,102147.19
2023-05-18T12:52:22.615Z,102143.13
2023-05-18T12:55:00.130Z,102144.03
2023-05-18T12:57:31.363Z,102140.72
2023-05-18T13:00:01.833Z,102150.59
2023-05-18T13:02:38.596Z,102142.28
2023-05-18T13:05:12.430Z,102137.38
2023-05-18T13:07:45.655Z,102138.44
2023-05-18T13:10:20.618Z,102132.97
2023-05-18T13:12:52.979Z,102129.81
2023-05-18T13:15:24.691Z,102132.22
2023-05-18T13:18:06.992Z,102132.84
2023-05-18T13:20:51.493Z,102136.72
2023-05-18T13:23:27.819Z,102132.38
2023-05-18T13:25:58.729Z,102125.59
2023-05-18T13:28:27.726Z,102130.59
2023-05-18T13:30:55.584Z,102130.72
2023-05-18T13:33:24.281Z,102122.44
2023-05-18T13:35:52.828Z,102127.66
2023-05-18T13:38:21.312Z,102125.59
2023-05-18T13:40:49.685Z,102124.22
2023-05-18T13:43:18.121Z,102103.28
2023-05-18T13:45:46.636Z,102111.31
2023-05-18T13:48:15.475Z,102117.25
2023-05-18T13:50:43.629Z,102107.91
2023-05-18T13:53:11.963Z,102116.81
2023-05-18T13:55:41.106Z,102111.81
2023-05-18T13:58:08.964Z,102108.53
2023-05-18T14:00:37.284Z,102106.88
2023-05-18T14:03:06.441Z,102100.84
2023-05-18T14:05:34.199Z,102098.63
2023-05-18T14:08:02.778Z,102102.06
2023-05-18T14:10:31.363Z,102088.41
2023-05-18T14:12:59.345Z,102100.81
2023-05-18T14:15:27.738Z,102096.28
2023-05-18T14:17:56.282Z,102096.91
2023-05-18T14:20:24.626Z,102087.75
2023-05-18T14:22:53.481Z,102082.91
2023-05-18T14:25:21.533Z,102081.28
2023-05-18T14:27:49.871Z,102091.34
2023-05-18T14:30:18.396Z,102085.41
2023-05-18T14:32:46.792Z,102096.31
2023-05-18T14:35:15.444Z,102089.47
2023-05-18T14:37:45.683Z,102081.81
2023-05-18T14:40:14.084Z,102084.97
2023-05-18T14:42:43.925Z,102084.78
2023-05-18T14:45:12.444Z,102086.72
2023-05-18T14:47:41.044Z,102077.31
2023-05-18T14:50:10.069Z,102071.38
2023-05-18T14:52:38.165Z,102077.41
2023-05-18T14:55:06.938Z,102072.66
2023-05-18T14:57:34.622Z,102069.06
2023-05-18T15:00:05.093Z,102071.97
2023-05-18T15:02:35.314Z,102079.31
2023-05-18T15:05:06.134Z,102066.84
2023-05-18T15:07:36.459Z,102068.00
2023-05-18T15:10:08.134Z,102071.91
2023-05-18T15:12:38.291Z,102071.50
2023-05-18T15:15:09.429Z,102074.09
2023-05-18T15:17:39.674Z,102077.25
2023-05-18T15:20:11.393Z,102072.69
2023-05-18T15:22:41.596Z,102066.56
2023-05-18T15:25:11.775Z,102073.97
2023-05-18T15:27:42.005Z,102079.66
2023-05-18T15:30:12.916Z,102058.84
2023-05-18T15:32:43.662Z,102065.63
2023-05-18T15:35:16.319Z,102069.72
2023-05-18T15:37:46.485Z,102067.03
2023-05-18T15:40:18.357Z,102066.22
2023-05-18T15:42:48.530Z,102067.34
2023-05-18T15:45:18.755Z,102057.72
2023-05-18T15:47:49.023Z,102058.59
2023-05-18T15:50:19.557Z,102059.22
2023-05-18T15:52:47.730Z,102063.34
2023-05-18T15:55:16.250Z,102060.16
2023-05-18T15:57:44.661Z,102055.34
2023-05-18T16:00:14.857Z,102060.22
2023-05-18T16:02:44.394Z,102057.25
2023-05-18T16:05:12.724Z,102050.28
2023-05-18T16:07:42.434Z,102052.84
2023-05-18T16:10:14.561Z,102057.81
2023-05-18T16:12:44.800Z,102056.53
2023-05-18T16:15:15.013Z,102054.72
2023-05-18T16:17:45.190Z,102054.47
2023-05-18T16:20:17.825Z,102050.38
2023-05-18T16:22:47.963Z,102048.13
2023-05-18T16:25:18.149Z,102055.78
2023-05-18T16:27:48.348Z,102062.09
2023-05-18T16:30:18.934Z,102049.56
2023-05-18T16:32:49.238Z,102055.81
2023-05-18T16:35:19.609Z,102061.00
2023-05-18T16:37:49.774Z,102055.91
2023-05-18T16:40:20.044Z,102071.38
2023-05-18T16:42:50.270Z,102063.31
2023-05-18T16:45:20.627Z,102067.91
2023-05-18T16:47:50.960Z,102068.56
2023-05-18T16:50:21.273Z,102058.53
2023-05-18T16:52:51.448Z,102066.75
2023-05-18T16:55:22.134Z,102061.00
2023-05-18T16:57:53.132Z,102064.31
2023-05-18T17:00:23.604Z,102060.50
2023-05-18T17:02:54.199Z,102059.53
2023-05-18T17:05:24.548Z,102053.25
2023-05-18T17:07:54.911Z,102054.22
2023-05-18T17:10:25.164Z,102059.16
2023-05-18T17:12:56.862Z,102046.97
2023-05-18T17:15:27.113Z,102051.84
2023-05-18T17:17:57.350Z,102058.44
2023-05-18T17:20:27.851Z,102055.94
2023-05-18T17:22:59.861Z,102054.63
2023-05-18T17:25:31.368Z,102047.19
2023-05-18T17:28:01.571Z,102051.41
2023-05-18T17:30:31.900Z,102047.13
2023-05-18T17:33:02.253Z,102052.13
2023-05-18T17:35:32.536Z,102045.59
2023-05-18T17:38:02.971Z,102046.59
2023-05-18T17:40:33.437Z,102039.56
2023-05-18T17:43:03.970Z,102049.25
2023-05-18T17:45:34.169Z,102050.06
2023-05-18T17:48:04.928Z,102048.75
2023-05-18T17:50:37.905Z,102048.91
2023-05-18T17:53:06.628Z,102047.25
2023-05-18T17:55:35.305Z,102051.84
2023-05-18T17:58:04.820Z,102054.16
2023-05-18T18:00:35.018Z,102056.44
2023-05-18T18:03:03.534Z,102049.06
2023-05-18T18:05:34.948Z,102046.13
2023-05-18T18:08:05.258Z,102051.22
2023-05-18T18:10:35.478Z,102050.72
2023-05-18T18:13:05.696Z,102053.00
2023-05-18T18:15:35.944Z,102046.50
2023-05-18T18:18:06.462Z,102053.00
2023-05-18T18:20:36.975Z,102061.66
2023-05-18T18:23:07.661Z,102057.72
2023-05-18T18:25:38.054Z,102054.34
2023-05-18T18:28:14.679Z,102061.34
2023-05-18T18:30:45.032Z,102056.16
2023-05-18T18:33:15.381Z,102053.44
2023-05-18T18:35:46.283Z,102052.69
2023-05-18T18:38:16.472Z,102052.41
2023-05-18T18:40:46.872Z,102056.28
2023-05-18T18:43:17.172Z,102050.88
2023-05-18T18:45:47.482Z,102061.75
2023-05-18T18:48:21.264Z,102054.25
2023-05-18T18:50:49.653Z,102050.88
2023-05-18T18:53:17.504Z,102064.19
2023-05-18T18:55:46.147Z,102060.81
2023-05-18T18:58:14.491Z,102067.72
2023-05-18T19:00:43.808Z,102069.03
2023-05-18T19:03:11.309Z,102072.34
2023-05-18T19:05:39.858Z,102075.84
2023-05-18T19:08:08.073Z,102082.94
2023-05-18T19:10:36.572Z,102081.69
2023-05-18T19:13:07.983Z,102086.00
2023-05-18T19:15:38.560Z,102089.47
2023-05-18T19:18:08.887Z,102080.97
2023-05-18T19:20:39.075Z,102087.22
2023-05-18T19:23:09.313Z,102089.88
2023-05-18T19:25:39.519Z,102086.94
2023-05-18T19:28:09.829Z,102091.53
2023-05-18T19:30:40.070Z,102093.03
2023-05-18T19:33:10.294Z,102095.69
2023-05-18T19:35:40.591Z,102091.59
2023-05-18T19:38:10.835Z,102097.53
2023-05-18T19:40:41.007Z,102106.00
2023-05-18T19:43:11.580Z,102103.06
2023-05-18T19:45:41.930Z,102103.19
2023-05-18T19:48:12.900Z,102106.06
2023-05-18T19:50:43.361Z,102102.25
2023-05-18T19:53:13.681Z,102104.56
2023-05-18T19:55:44.152Z,102102.44
2023-05-18T19:58:14.336Z,102103.63
2023-05-18T20:00:44.570Z,102104.78
2023-05-18T20:03:16.616Z,102103.19
2023-05-18T20:05:47.976Z,102101.28
2023-05-18T20:08:18.129Z,102097.75
2023-05-18T20:10:48.795Z,102108.34
2023-05-18T20:13:18.970Z,102105.38
2023-05-18T20:15:50.090Z,102097.66
2023-05-18T20:18:20.264Z,102102.72
2023-05-18T20:20:51.016Z,102113.03
2023-05-18T20:23:21.210Z,102101.47
2023-05-18T20:25:51.433Z,102108.16
2023-05-18T20:28:19.810Z,102112.09
2023-05-18T20:30:49.347Z,102124.00
2023-05-18T20:33:17.852Z,102127.78
2023-05-18T20:35:48.552Z,102127.22
2023-05-18T20:38:17.061Z,102127.72
2023-05-18T20:40:51.208Z,102132.28
2023-05-18T20:43:21.533Z,102133.53
2023-05-18T20:45:51.853Z,102136.06
2023-05-18T20:48:26.877Z,102131.03
2023-05-18T20:50:56.922Z,102135.25
2023-05-18T20:53:26.223Z,102134.41
2023-05-18T20:55:56.386Z,102138.63
2023-05-18T20:58:26.622Z,102140.53
2023-05-18T21:00:56.767Z,102136.94
2023-05-18T21:03:25.405Z,102133.44
2023-05-18T21:05:55.639Z,102128.53
2023-05-18T21:08:24.422Z,102129.94
2023-05-18T21:10:53.032Z,102130.25
2023-05-18T21:13:21.544Z,102135.56
2023-05-18T21:15:50.281Z,102134.19
2023-05-18T21:18:18.714Z,102132.31
2023-05-18T21:20:47.149Z,102142.59
2023-05-18T21:23:15.637Z,102135.91
2023-05-18T21:25:44.058Z,102135.97
2023-05-18T21:28:12.560Z,102134.25
2023-05-18T21:30:41.261Z,102134.03
2023-05-18T21:33:09.501Z,102135.78
2023-05-18T21:35:38.192Z,102140.53
2023-05-18T21:38:06.512Z,102143.91
2023-05-18T21:40:36.425Z,102138.41
2023-05-18T21:43:06.428Z,102130.16
2023-05-18T21:45:34.904Z,102137.94
2023-05-18T21:48:03.295Z,102135.22
2023-05-18T21:50:35.157Z,102133.00
2023-05-18T21:53:05.849Z,102144.69
2023-05-18T21:55:36.140Z,102134.19
2023-05-18T21:58:06.402Z,102136.47
2023-05-18T22:00:38.255Z,102130.69
2023-05-18T22:03:08.506Z,102142.63
2023-05-18T22:05:38.968Z,102135.44
2023-05-18T22:08:09.178Z,102143.75
2023-05-18T22:10:39.493Z,102135.75
2023-05-18T22:13:09.961Z,102140.47
2023-05-18T22:15:40.912Z,102141.59
2023-05-18T22:18:11.366Z,102135.25
2023-05-18T22:20:41.712Z,102146.88
2023-05-18T22:23:11.870Z,102135.28
2023-05-18T22:25:42.069Z,102148.84
2023-05-18T22:28:12.930Z,102146.38
2023-05-18T22:30:43.469Z,102143.09
2023-05-18T22:33:13.740Z,102133.69
2023-05-18T22:35:45.271Z,102139.78
2023-05-18T22:38:16.914Z,102144.25
2023-05-18T22:40:47.170Z,102138.44
2023-05-18T22:43:17.453Z,102135.66
2023-05-18T22:45:47.914Z,102139.00
2023-05-18T22:48:18.181Z,102138.44
2023-05-18T22:50:48.493Z,102135.13
2023-05-18T22:53:18.714Z,102128.78
2023-05-18T22:55:48.911Z,102135.13
2023-05-18T22:58:19.100Z,102126.81
2023-05-18T23:00:49.279Z,102132.66
2023-05-18T23:03:19.488Z,102130.16
2023-05-18T23:05:49.967Z,102129.34
2023-05-18T23:08:20.588Z,102128.47
2023-05-18T23:10:50.855Z,102125.72
2023-05-18T23:13:21.301Z,102126.00
2023-05-18T23:15:56.255Z,102127.38
2023-05-18T23:18:28.000Z,102136.81
2023-05-18T23:20:58.877Z,102129.88
2023-05-18T23:23:29.105Z,102130.72
2023-05-18T23:25:59.967Z,102132.38
2023-05-18T23:28:30.139Z,102118.56
2023-05-18T23:31:01.443Z,102124.06
2023-05-18T23:33:32.352Z,102121.59
2023-05-18T23:36:05.037Z,102128.78
2023-05-18T23:38:38.140Z,102123.25
2023-05-18T23:41:10.195Z,102127.97
2023-05-18T23:43:41.180Z,102124.94
2023-05-18T23:46:12.165Z,102120.75
2023-05-18T23:48:42.814Z,102124.09
2023-05-18T23:51:21.882Z,102121.03
2023-05-18T23:53:52.785Z,102121.56
2023-05-18T23:56:23.615Z,102119.38
2023-05-18T23:58:54.312Z,102126.81
